createdAt,value
2017-10-19T00:01:43.149Z,73.70
2017-10-19T00:07:11.288Z,73.60
2017-10-19T00:12:40.192Z,74.10
2017-10-19T00:18:08.328Z,73.90
2017-10-19T00:23:37.245Z,73.80
2017-10-19T00:29:05.418Z,73.70
2017-10-19T00:34:33.556Z,73.80
2017-10-19T00:40:01.715Z,73.80
2017-10-19T00:45:29.842Z,73.80
2017-10-19T00:50:57.997Z,73.70
2017-10-19T00:56:26.935Z,73.90
2017-10-19T01:01:55.085Z,73.90
2017-10-19T01:07:25.148Z,73.70
2017-10-19T01:12:53.279Z,73.90
2017-10-19T01:18:22.231Z,73.90
2017-10-19T01:23:50.469Z,73.90
2017-10-19T01:29:18.604Z,74.00
2017-10-19T01:34:47.356Z,74.00
2017-10-19T01:40:15.534Z,74.00
2017-10-19T01:45:45.681Z,73.90
2017-10-19T01:51:13.893Z,74.10
2017-10-19T01:56:42.043Z,74.30
2017-10-19T02:02:11.169Z,74.30
2017-10-19T02:07:39.418Z,74.40
2017-10-19T02:13:07.555Z,74.50
2017-10-19T02:18:35.678Z,74.40
2017-10-19T02:24:04.667Z,74.40
2017-10-19T02:29:32.906Z,74.30
2017-10-19T02:35:01.969Z,74.60
2017-10-19T02:40:30.380Z,74.50
2017-10-19T02:45:58.517Z,74.50
2017-10-19T02:51:26.676Z,74.50
2017-10-19T02:56:55.684Z,74.70
2017-10-19T03:02:23.812Z,74.60
2017-10-19T03:07:52.711Z,74.70
2017-10-19T03:13:20.836Z,74.60
2017-10-19T03:18:49.735Z,74.70
2017-10-19T03:24:17.876Z,74.70
2017-10-19T03:29:46.252Z,74.60
2017-10-19T03:35:14.400Z,75.30
2017-10-19T03:40:42.602Z,74.70
2017-10-19T03:46:10.777Z,74.60
2017-10-19T03:51:38.911Z,74.70
2017-10-19T03:57:07.114Z,74.60
2017-10-19T04:02:36.039Z,74.80
2017-10-19T04:08:04.174Z,74.80
2017-10-19T04:13:32.468Z,74.80
2017-10-19T04:19:00.624Z,74.90
2017-10-19T04:24:28.907Z,74.90
2017-10-19T04:29:57.106Z,75.00
2017-10-19T04:35:25.275Z,74.90
2017-10-19T04:40:53.436Z,75.00
2017-10-19T04:46:21.589Z,75.00
2017-10-19T04:51:53.490Z,75.10
2017-10-19T04:57:21.664Z,75.00
2017-10-19T05:02:50.585Z,75.00
2017-10-19T05:08:18.749Z,75.00
2017-10-19T05:13:46.867Z,75.10
2017-10-19T05:19:15.784Z,75.10
2017-10-19T05:24:43.936Z,75.10
2017-10-19T05:30:12.081Z,75.20
2017-10-19T05:35:40.289Z,75.20
2017-10-19T05:41:08.432Z,75.20
2017-10-19T05:46:36.684Z,75.30
2017-10-19T05:52:04.833Z,75.20
2017-10-19T05:57:33.039Z,75.10
2017-10-19T06:03:01.213Z,75.00
2017-10-19T06:08:29.469Z,75.00
2017-10-19T06:13:58.387Z,74.70
2017-10-19T06:19:26.667Z,74.70
2017-10-19T06:24:54.800Z,74.50
2017-10-19T06:30:22.976Z,74.30
2017-10-19T06:35:51.108Z,74.20
2017-10-19T06:41:19.242Z,74.10
2017-10-19T06:46:47.388Z,73.80
2017-10-19T06:52:16.289Z,73.60
2017-10-19T06:57:44.436Z,73.60
2017-10-19T07:03:12.575Z,73.30
2017-10-19T07:08:45.979Z,72.70
2017-10-19T07:14:14.091Z,72.70
2017-10-19T07:19:42.290Z,71.60
2017-10-19T07:25:10.431Z,71.30
2017-10-19T07:30:39.365Z,71.00
2017-10-19T07:36:07.517Z,71.00
2017-10-19T07:41:35.663Z,70.70
2017-10-19T07:47:03.830Z,70.30
2017-10-19T07:52:32.027Z,70.20
2017-10-19T07:58:01.073Z,69.30
2017-10-19T08:03:29.215Z,69.20
2017-10-19T08:08:57.355Z,68.80
2017-10-19T08:14:25.605Z,68.10
2017-10-19T08:19:54.545Z,66.80
2017-10-19T08:25:22.688Z,66.80
2017-10-19T08:30:50.834Z,65.80
2017-10-19T08:36:18.997Z,65.20
2017-10-19T08:41:47.149Z,65.00
2017-10-19T08:47:15.324Z,64.00
2017-10-19T08:52:43.477Z,63.90
2017-10-19T08:58:11.624Z,62.70
2017-10-19T09:03:39.765Z,61.60
2017-10-19T09:09:07.903Z,60.90
2017-10-19T09:14:36.117Z,60.60
2017-10-19T09:20:04.284Z,60.00
2017-10-19T09:25:32.453Z,59.50
2017-10-19T09:31:00.591Z,59.50
2017-10-19T09:36:28.748Z,58.90
2017-10-19T09:41:56.917Z,58.60
2017-10-19T09:47:25.074Z,58.00
2017-10-19T09:52:53.228Z,57.60
2017-10-19T09:58:21.433Z,57.60
2017-10-19T10:03:49.621Z,57.20
2017-10-19T10:09:17.780Z,56.60
2017-10-19T10:14:45.955Z,56.60
2017-10-19T10:20:14.115Z,56.10
2017-10-19T10:25:42.264Z,55.70
2017-10-19T10:31:10.416Z,55.10
2017-10-19T10:36:38.591Z,54.90
2017-10-19T10:42:06.741Z,54.10
2017-10-19T10:47:34.894Z,53.60
2017-10-19T10:53:03.087Z,54.00
2017-10-19T10:58:31.258Z,53.00
2017-10-19T11:04:00.178Z,51.70
2017-10-19T11:09:28.418Z,51.70
2017-10-19T11:14:56.633Z,51.30
2017-10-19T11:20:24.972Z,51.60
2017-10-19T11:25:53.188Z,50.90
2017-10-19T11:31:21.341Z,50.90
2017-10-19T11:36:50.262Z,49.70
2017-10-19T11:42:18.424Z,49.70
2017-10-19T11:47:46.575Z,49.40
2017-10-19T11:53:14.715Z,49.50
2017-10-19T11:58:42.872Z,49.00
2017-10-19T12:04:11.034Z,48.70
2017-10-19T12:09:39.195Z,49.00
2017-10-19T12:15:07.331Z,48.60
2017-10-19T12:20:35.467Z,47.30
2017-10-19T12:26:04.376Z,45.80
2017-10-19T12:31:32.696Z,45.60
2017-10-19T12:37:01.613Z,43.70
2017-10-19T12:42:29.764Z,43.50
2017-10-19T12:47:58.012Z,44.10
2017-10-19T12:53:26.156Z,43.20
2017-10-19T12:58:55.080Z,41.40
2017-10-19T13:04:23.391Z,41.40
2017-10-19T13:09:52.319Z,39.80
2017-10-19T13:15:21.393Z,39.70
2017-10-19T13:20:49.535Z,40.80
2017-10-19T13:26:17.710Z,40.10
2017-10-19T13:31:45.869Z,38.70
2017-10-19T13:37:14.028Z,36.50
2017-10-19T13:42:42.171Z,35.00
2017-10-19T13:48:10.321Z,34.00
2017-10-19T13:53:38.483Z,32.00
2017-10-19T13:59:06.641Z,30.50
2017-10-19T14:04:34.783Z,30.10
2017-10-19T14:10:02.987Z,29.50
2017-10-19T14:15:31.170Z,29.20
2017-10-19T14:21:00.101Z,30.00
2017-10-19T14:26:28.286Z,29.90
2017-10-19T14:31:56.469Z,30.00
2017-10-19T14:37:25.414Z,29.70
2017-10-19T14:42:53.592Z,29.70
2017-10-19T14:48:22.551Z,30.00
2017-10-19T14:53:50.705Z,29.90
2017-10-19T14:59:18.896Z,30.10
2017-10-19T15:04:47.816Z,30.20
2017-10-19T15:10:15.946Z,30.20
2017-10-19T15:15:44.895Z,32.30
2017-10-19T15:21:13.092Z,32.20
2017-10-19T15:26:41.226Z,34.00
2017-10-19T15:32:09.387Z,35.50
2017-10-19T15:37:38.315Z,37.70
2017-10-19T15:43:06.486Z,37.60
2017-10-19T15:48:34.651Z,38.50
2017-10-19T15:54:02.817Z,39.90
2017-10-19T15:59:31.009Z,40.90
2017-10-19T16:04:59.178Z,41.70
2017-10-19T16:10:27.353Z,42.70
2017-10-19T16:15:55.534Z,44.70
2017-10-19T16:21:23.705Z,46.30
2017-10-19T16:26:51.872Z,47.80
2017-10-19T16:32:20.795Z,51.00
2017-10-19T16:37:48.994Z,51.10
2017-10-19T16:43:17.151Z,52.20
2017-10-19T16:48:45.332Z,53.10
2017-10-19T16:54:13.487Z,54.10
2017-10-19T16:59:42.441Z,55.80
2017-10-19T17:05:10.701Z,55.90
2017-10-19T17:10:38.862Z,56.50
2017-10-19T17:16:07.026Z,57.30
2017-10-19T17:21:35.692Z,58.10
2017-10-19T17:27:03.980Z,58.60
2017-10-19T17:32:32.179Z,59.10
2017-10-19T17:38:00.358Z,59.60
2017-10-19T17:43:28.519Z,60.00
2017-10-19T17:48:56.742Z,60.00
2017-10-19T17:54:24.996Z,60.20
2017-10-19T17:59:53.209Z,60.20
2017-10-19T18:05:21.371Z,60.60
2017-10-19T18:10:50.323Z,61.10
2017-10-19T18:16:18.578Z,61.10
2017-10-19T18:21:47.667Z,61.40
2017-10-19T18:27:15.995Z,61.60
2017-10-19T18:32:44.180Z,62.10
2017-10-19T18:38:12.431Z,62.40
2017-10-19T18:43:40.644Z,62.80
2017-10-19T18:49:09.567Z,63.70
2017-10-19T18:54:37.748Z,63.60
2017-10-19T19:00:06.279Z,64.00
2017-10-19T19:05:34.731Z,64.10
2017-10-19T19:11:02.959Z,64.30
2017-10-19T19:16:32.114Z,64.40
2017-10-19T19:22:00.657Z,64.70
2017-10-19T19:27:29.086Z,64.90
2017-10-19T19:32:57.276Z,65.10
2017-10-19T19:38:25.527Z,65.50
2017-10-19T19:43:54.646Z,65.70
2017-10-19T19:49:22.822Z,66.00
2017-10-19T19:54:50.990Z,66.10
2017-10-19T20:00:19.925Z,66.70
2017-10-19T20:05:48.128Z,66.70
2017-10-19T20:11:17.498Z,67.10
2017-10-19T20:16:45.705Z,67.20
2017-10-19T20:22:13.887Z,67.50
2017-10-19T20:27:42.095Z,67.70
2017-10-19T20:33:11.029Z,68.10
2017-10-19T20:38:58.464Z,68.00
2017-10-19T20:44:27.733Z,68.40
2017-10-19T20:49:55.891Z,68.40
2017-10-19T20:55:24.065Z,68.60
2017-10-19T21:00:52.215Z,68.80
2017-10-19T21:06:20.368Z,69.00
2017-10-19T21:11:48.631Z,69.10
2017-10-19T21:17:16.783Z,69.20
2017-10-19T21:22:45.004Z,69.40
2017-10-19T21:28:13.232Z,69.60
2017-10-19T21:33:42.169Z,69.70
2017-10-19T21:39:10.648Z,69.70
2017-10-19T21:44:38.788Z,69.70
2017-10-19T21:50:06.973Z,70.00
2017-10-19T21:55:35.129Z,70.10
2017-10-19T22:01:03.289Z,70.10
2017-10-19T22:06:32.207Z,70.30
2017-10-19T22:12:00.446Z,70.30
2017-10-19T22:17:28.601Z,70.60
2017-10-19T22:22:57.810Z,70.70
2017-10-19T22:28:25.991Z,70.80
2017-10-19T22:33:54.148Z,70.70
2017-10-19T22:39:22.287Z,70.80
2017-10-19T22:44:50.486Z,70.90
2017-10-19T22:50:18.627Z,72.20
2017-10-19T22:55:46.778Z,72.10
2017-10-19T23:01:14.979Z,72.10
2017-10-19T23:06:43.172Z,72.20
2017-10-19T23:12:11.319Z,72.20
2017-10-19T23:17:39.451Z,72.50
2017-10-19T23:23:08.370Z,72.70
2017-10-19T23:28:36.533Z,72.70
2017-10-19T23:34:05.804Z,73.00
2017-10-19T23:39:33.949Z,73.00
2017-10-19T23:45:02.085Z,73.10
2017-10-19T23:50:31.042Z,73.40
2017-10-19T23:55:59.205Z,73.30
